Time;durP1;ratioP1;P1;durP2;ratioP2;P2;SDS_P1;SDS_P2;PMS_P1;PMS_P2;Temp;Humidity;BMP_temperature;BMP_pressure;BME280_temperature;BME280_humidity;BME280_pressure;Samples;Min_cycle;Max_cycle;Signal;HPM_P1;HPM_P2
2022/01/08 04:49:41;;;;;;;19.53;12.27;;;-8.10;99.90;;;;;;5113623;27;20550;-74
2022/01/08 04:52:06;;;;;;;19.40;13.40;;;-7.40;99.90;;;;;;5112945;28;20452;-78
2022/01/08 04:54:32;;;;;;;25.37;13.57;;;-7.40;99.90;;;;;;5112376;28;20264;-75
2022/01/08 04:56:58;;;;;;;19.20;11.80;;;-7.40;99.90;;;;;;5113531;28;20170;-74
2022/01/08 04:59:24;;;;;;;17.77;11.97;;;-7.60;99.90;;;;;;5113174;28;20182;-75
2022/01/08 05:01:49;;;;;;;26.50;14.97;;;-6.50;99.90;;;;;;5112579;28;20185;-76
2022/01/08 05:04:15;;;;;;;18.27;10.57;;;-8.00;99.90;;;;;;5113478;28;20170;-78
2022/01/08 05:06:41;;;;;;;23.40;13.47;;;-7.10;99.90;;;;;;5113445;28;20170;-80
2022/01/08 05:09:07;;;;;;;14.73;11.27;;;-7.80;99.90;;;;;;5113242;28;20453;-74
2022/01/08 05:11:33;;;;;;;19.33;12.70;;;-8.00;99.90;;;;;;5112564;28;20174;-73
2022/01/08 05:13:59;;;;;;;22.70;12.83;;;-7.30;99.90;;;;;;5112965;28;20218;-73
2022/01/08 05:16:27;;;;;;;19.97;11.47;;;-8.20;99.90;;;;;;5113220;28;20270;-77
2022/01/08 05:18:54;;;;;;;19.20;11.47;;;-7.90;99.90;;;;;;5111562;28;20474;-75
2022/01/08 05:23:47;;;;;;;22.43;11.93;;;-7.40;99.90;;;;;;5113160;28;20402;-75
2022/01/08 05:26:12;;;;;;;19.80;10.93;;;-5.10;99.90;;;;;;5112892;28;20838;-76
2022/01/08 05:28:38;;;;;;;19.80;12.23;;;-5.20;99.90;;;;;;5112631;28;20194;-78
2022/01/08 05:31:04;;;;;;;18.27;11.20;;;-6.20;99.90;;;;;;5112102;28;20162;-74
2022/01/08 05:33:30;;;;;;;19.73;11.73;;;-7.30;99.90;;;;;;5112965;28;20166;-75
2022/01/08 05:35:56;;;;;;;20.87;11.73;;;-7.80;99.90;;;;;;5112747;28;20171;-75
2022/01/08 05:38:21;;;;;;;19.30;12.20;;;-8.00;99.90;;;;;;5112153;28;20213;-76
2022/01/08 05:40:48;;;;;;;21.77;12.23;;;-7.80;99.90;;;;;;5112558;28;20170;-76
2022/01/08 05:43:13;;;;;;;19.10;11.40;;;-8.00;99.90;;;;;;5112605;28;20173;-75
2022/01/08 05:45:39;;;;;;;15.60;12.03;;;-8.40;99.90;;;;;;5111993;28;20903;-77
2022/01/08 05:48:05;;;;;;;19.03;12.60;;;-9.00;99.90;;;;;;5111783;28;20241;-77
2022/01/08 05:50:32;;;;;;;18.87;13.03;;;-8.40;99.90;;;;;;5112430;28;20227;-79
2022/01/08 05:52:57;;;;;;;30.07;14.57;;;-8.00;99.90;;;;;;5112617;28;20433;-80
2022/01/08 05:55:23;;;;;;;16.60;12.93;;;-7.90;99.90;;;;;;5112324;28;20245;-79
2022/01/08 05:57:49;;;;;;;21.83;11.80;;;-8.00;99.90;;;;;;5112033;28;20250;-80
2022/01/08 06:00:15;;;;;;;16.47;11.23;;;-8.20;99.90;;;;;;5102137;28;20202;-79
2022/01/08 06:02:41;;;;;;;21.40;11.60;;;-8.40;99.90;;;;;;5098162;28;20181;-75
2022/01/08 06:05:07;;;;;;;14.10;9.97;;;-8.50;99.90;;;;;;5098649;28;20167;-77
2022/01/08 06:07:33;;;;;;;23.73;13.50;;;-8.40;99.90;;;;;;5098192;28;20170;-78
2022/01/08 06:09:59;;;;;;;20.40;11.97;;;-8.50;99.90;;;;;;5098600;28;20395;-78
2022/01/08 06:12:24;;;;;;;22.77;12.33;;;-8.00;99.90;;;;;;5098466;28;20567;-74
2022/01/08 06:14:50;;;;;;;19.83;11.77;;;-8.20;99.90;;;;;;5098567;28;20163;-79
2022/01/08 06:17:16;;;;;;;19.87;11.63;;;-8.70;99.90;;;;;;5097475;28;20461;-76
2022/01/08 06:19:41;;;;;;;18.53;10.83;;;-8.60;99.90;;;;;;5098473;28;20171;-79
2022/01/08 06:22:07;;;;;;;16.50;10.60;;;-8.10;99.90;;;;;;5098335;28;20222;-80
2022/01/08 06:24:33;;;;;;;18.70;10.97;;;-7.40;99.90;;;;;;5098441;28;20198;-81
2022/01/08 06:26:59;;;;;;;15.40;10.90;;;-8.30;99.90;;;;;;5097913;28;20574;-81
2022/01/08 06:29:24;;;;;;;19.70;10.03;;;-8.00;99.90;;;;;;5097487;28;20621;-78
2022/01/08 06:31:50;;;;;;;20.23;12.03;;;-8.10;99.90;;;;;;5098177;28;20181;-78
2022/01/08 06:34:16;;;;;;;17.93;9.83;;;-7.80;99.90;;;;;;5096436;28;20170;-81
2022/01/08 06:36:42;;;;;;;16.17;10.10;;;-7.60;99.90;;;;;;5098064;28;20249;-78
2022/01/08 06:39:08;;;;;;;24.67;14.43;;;-7.80;99.90;;;;;;5098182;28;20495;-79
2022/01/08 06:41:33;;;;;;;20.37;10.80;;;-6.20;99.90;;;;;;5097689;28;20272;-78
2022/01/08 06:43:59;;;;;;;17.37;9.73;;;-4.70;99.90;;;;;;5097957;28;20175;-75
2022/01/08 06:46:25;;;;;;;21.00;10.70;;;-7.10;99.90;;;;;;5097491;28;20177;-74
2022/01/08 06:48:51;;;;;;;18.83;11.57;;;-6.80;99.90;;;;;;5097241;28;20297;-74
2022/01/08 06:51:16;;;;;;;17.23;10.13;;;-6.70;99.90;;;;;;5096878;28;20473;-75
2022/01/08 06:53:42;;;;;;;15.43;11.40;;;-6.80;99.90;;;;;;5097527;28;20167;-73
2022/01/08 06:56:08;;;;;;;13.90;9.47;;;-6.70;99.90;;;;;;5097980;28;20562;-76
2022/01/08 06:58:35;;;;;;;17.67;10.37;;;-6.80;99.90;;;;;;5097854;28;20190;-74
2022/01/08 07:01:01;;;;;;;15.67;11.23;;;-6.60;99.90;;;;;;5096992;28;20836;-75
2022/01/08 07:03:26;;;;;;;16.00;10.37;;;-6.70;99.90;;;;;;5096506;28;20514;-74
2022/01/08 07:05:52;;;;;;;15.07;9.60;;;-6.90;99.90;;;;;;5097563;28;20473;-74
2022/01/08 07:08:18;;;;;;;14.83;9.53;;;-7.00;99.90;;;;;;5097139;28;20198;-74
2022/01/08 07:10:43;;;;;;;16.93;9.60;;;-7.00;99.90;;;;;;5096267;28;20163;-74
2022/01/08 07:13:09;;;;;;;19.73;10.77;;;-6.50;99.90;;;;;;5096691;28;20172;-74
2022/01/08 07:15:35;;;;;;;19.80;10.33;;;-5.20;99.90;;;;;;5097421;28;20246;-74
2022/01/08 07:18:01;;;;;;;11.53;8.93;;;-6.20;99.90;;;;;;5096690;28;20175;-77
2022/01/08 07:20:27;;;;;;;19.83;8.60;;;-7.30;99.90;;;;;;5096908;28;20880;-74
2022/01/08 07:22:53;;;;;;;14.60;7.97;;;-7.60;99.90;;;;;;5096838;28;20710;-74
2022/01/08 07:25:19;;;;;;;13.63;9.27;;;-7.30;99.90;;;;;;5092286;28;20232;-74
2022/01/08 07:27:45;;;;;;;15.70;9.30;;;-7.00;99.90;;;;;;5079499;28;20443;-75
2022/01/08 07:30:11;;;;;;;15.53;10.83;;;-7.30;99.90;;;;;;5079624;28;20498;-76
2022/01/08 07:32:48;;;;;;;13.53;10.10;;;-6.10;99.90;;;;;;5096937;28;20171;-74
2022/01/08 07:35:16;;;;;;;14.77;8.00;;;-7.10;99.90;;;;;;5096912;28;20189;-75
2022/01/08 07:37:43;;;;;;;15.53;7.97;;;-6.60;99.90;;;;;;5096414;28;20518;-75
2022/01/08 07:40:11;;;;;;;9.60;7.50;;;-6.60;99.90;;;;;;5095737;28;20415;-74
2022/01/08 07:42:38;;;;;;;16.53;9.13;;;-7.10;99.90;;;;;;5091557;28;20836;-73
2022/01/08 07:45:05;;;;;;;11.70;8.53;;;-6.90;99.90;;;;;;5075461;28;20469;-74
2022/01/08 07:47:31;;;;;;;12.43;8.73;;;-6.80;99.90;;;;;;5075311;28;20448;-74
2022/01/08 07:49:56;;;;;;;12.67;8.60;;;-6.80;99.90;;;;;;5076370;28;20852;-77
2022/01/08 07:52:22;;;;;;;19.07;8.47;;;-6.70;99.90;;;;;;5075985;28;20568;-74
2022/01/08 07:54:48;;;;;;;14.07;9.53;;;-5.80;99.90;;;;;;5076366;28;20209;-74
2022/01/08 07:57:14;;;;;;;12.53;6.90;;;-7.00;99.90;;;;;;5074430;28;20175;-74
2022/01/08 07:59:42;;;;;;;12.20;7.63;;;-7.10;99.90;;;;;;5076061;28;20191;-75
2022/01/08 08:02:10;;;;;;;10.27;7.13;;;-6.90;99.90;;;;;;5075170;28;20171;-75
2022/01/08 08:04:36;;;;;;;12.00;8.13;;;-7.40;99.90;;;;;;5074929;28;20419;-74
2022/01/08 08:07:02;;;;;;;9.03;5.83;;;-7.40;99.90;;;;;;5075872;28;20408;-74
2022/01/08 08:09:28;;;;;;;16.83;7.33;;;-6.90;99.90;;;;;;5076239;28;20964;-74
2022/01/08 08:11:54;;;;;;;16.60;7.87;;;-6.70;99.90;;;;;;5075866;28;20408;-78
2022/01/08 08:14:20;;;;;;;13.97;7.17;;;-7.80;99.90;;;;;;5076021;28;20220;-81
2022/01/08 08:16:45;;;;;;;14.97;6.50;;;-7.80;99.90;;;;;;5075563;28;20540;-76
2022/01/08 08:19:11;;;;;;;11.53;7.00;;;-8.40;99.90;;;;;;5085282;28;20178;-81
2022/01/08 08:21:37;;;;;;;10.70;7.13;;;-8.20;99.90;;;;;;5081239;28;20179;-74
2022/01/08 08:24:05;;;;;;;9.50;6.30;;;-8.50;99.90;;;;;;5078517;28;20204;-81
2022/01/08 08:26:33;;;;;;;12.57;7.30;;;-7.70;99.90;;;;;;5092714;28;20186;-74
2022/01/08 08:28:59;;;;;;;12.63;6.77;;;-8.60;99.90;;;;;;5087857;28;20834;-83
2022/01/08 08:31:25;;;;;;;8.87;5.43;;;-8.90;99.90;;;;;;5095716;28;20474;-75
2022/01/08 08:33:50;;;;;;;10.70;6.03;;;-8.30;99.90;;;;;;5095116;28;20167;-81
2022/01/08 08:36:19;;;;;;;10.60;5.97;;;-8.50;99.90;;;;;;5091183;28;20458;-77
2022/01/08 08:38:45;;;;;;;15.77;6.97;;;-7.20;99.90;;;;;;5075508;28;20174;-73
2022/01/08 08:41:11;;;;;;;11.13;5.63;;;-8.70;99.90;;;;;;5077000;28;20420;-84
2022/01/08 08:43:37;;;;;;;9.20;5.47;;;-7.60;99.90;;;;;;5080267;28;20428;-81
2022/01/08 08:46:03;;;;;;;7.07;5.30;;;-8.80;99.90;;;;;;5076021;28;20515;-77
2022/01/08 08:48:37;;;;;;;8.23;4.93;;;-8.80;99.90;;;;;;5074392;28;20468;-81
2022/01/08 08:51:03;;;;;;;8.93;5.10;;;-8.60;99.90;;;;;;5080149;28;20778;-73
2022/01/08 08:53:28;;;;;;;6.20;3.97;;;-8.00;99.90;;;;;;5085725;28;20415;-81
2022/01/08 08:55:54;;;;;;;7.03;4.00;;;-8.00;99.90;;;;;;5078433;28;20210;-77
2022/01/08 08:58:20;;;;;;;8.47;4.73;;;-7.80;99.90;;;;;;5077863;28;20289;-80
2022/01/08 09:00:45;;;;;;;6.90;3.80;;;-7.90;99.90;;;;;;5086582;28;20317;-83
2022/01/08 09:03:12;;;;;;;5.43;3.67;;;-7.70;99.90;;;;;;5080363;28;20486;-78
2022/01/08 09:05:38;;;;;;;4.40;4.00;;;-7.50;99.90;;;;;;5090821;28;20261;-72
2022/01/08 09:08:04;;;;;;;6.93;3.97;;;-7.90;99.90;;;;;;5077553;28;20546;-80
2022/01/08 09:10:31;;;;;;;4.27;3.87;;;-7.10;99.90;;;;;;5095102;28;20184;-72
2022/01/08 09:12:57;;;;;;;5.57;4.37;;;-7.80;99.90;;;;;;5084348;28;20426;-76
2022/01/08 09:15:25;;;;;;;7.37;4.17;;;-7.50;99.90;;;;;;5076605;28;20408;-76
2022/01/08 09:17:57;;;;;;;6.40;4.23;;;-7.30;99.90;;;;;;5082533;28;20437;-80
2022/01/08 09:20:26;;;;;;;8.40;4.50;;;-7.10;99.90;;;;;;5083452;28;20423;-73
2022/01/08 09:22:52;;;;;;;4.70;3.43;;;-7.20;99.90;;;;;;5085950;28;20469;-73
2022/01/08 09:25:19;;;;;;;5.27;4.77;;;-7.10;99.90;;;;;;5081532;28;20415;-78
2022/01/08 09:27:45;;;;;;;8.00;5.20;;;-7.10;99.90;;;;;;5079360;28;20455;-71
2022/01/08 09:30:11;;;;;;;7.97;4.10;;;-7.30;99.90;;;;;;5082869;28;20411;-72
2022/01/08 09:32:37;;;;;;;4.97;3.80;;;-7.40;99.90;;;;;;5078131;28;20465;-71
2022/01/08 09:35:04;;;;;;;4.87;4.03;;;-7.40;99.90;;;;;;5075415;28;20498;-72
2022/01/08 09:37:30;;;;;;;6.10;2.90;;;-7.50;99.90;;;;;;5093346;28;20419;-71
2022/01/08 09:39:56;;;;;;;9.43;6.33;;;-5.20;99.90;;;;;;5080182;28;20943;-71
2022/01/08 09:42:21;;;;;;;5.97;4.00;;;-7.20;99.90;;;;;;5081743;28;20190;-74
2022/01/08 09:44:47;;;;;;;5.07;3.13;;;-7.10;99.90;;;;;;5094214;28;20601;-72
2022/01/08 09:47:13;;;;;;;3.53;3.10;;;-7.20;99.90;;;;;;5085506;28;20187;-73
2022/01/08 09:49:40;;;;;;;6.00;3.43;;;-7.60;99.90;;;;;;5090598;28;20218;-73
2022/01/08 09:52:07;;;;;;;4.03;3.33;;;-7.40;99.90;;;;;;5095101;28;20467;-75
2022/01/08 09:54:34;;;;;;;5.87;3.10;;;-7.30;99.90;;;;;;5085514;28;20484;-72
2022/01/08 09:57:00;;;;;;;5.90;4.27;;;-7.50;99.90;;;;;;5103381;28;20454;-73
2022/01/08 09:59:28;;;;;;;13.50;5.80;;;-6.20;99.90;;;;;;5104581;28;20435;-75
2022/01/08 10:01:57;;;;;;;2.67;2.47;;;-7.60;99.90;;;;;;5097184;28;20423;-76
2022/01/08 10:04:25;;;;;;;5.77;4.17;;;-7.00;99.90;;;;;;5095595;28;20889;-75
2022/01/08 10:06:50;;;;;;;6.50;4.13;;;-6.70;99.90;;;;;;5096380;28;20418;-72
2022/01/08 10:09:16;;;;;;;5.03;3.10;;;-4.80;99.90;;;;;;5096866;28;20538;-75
2022/01/08 10:11:49;;;;;;;8.30;5.20;;;-7.00;99.90;;;;;;5104908;28;20498;-77
2022/01/08 10:14:27;;;;;;;5.63;3.03;;;-7.60;99.90;;;;;;5096436;28;20186;-73
2022/01/08 10:19:38;;;;;;;5.43;3.07;;;-7.70;99.90;;;;;;5093043;28;20795;-71
2022/01/08 10:22:15;;;;;;;6.37;3.63;;;-7.40;99.90;;;;;;5094029;28;20510;-71
2022/01/08 10:24:41;;;;;;;3.57;3.23;;;-6.80;99.90;;;;;;5096197;28;20340;-72
2022/01/08 10:27:07;;;;;;;6.23;2.70;;;-7.40;99.90;;;;;;5095425;28;20890;-75
2022/01/08 10:29:34;;;;;;;5.23;2.77;;;-7.40;99.90;;;;;;5111827;28;20292;-72
2022/01/08 10:32:00;;;;;;;3.10;2.80;;;-7.10;99.90;;;;;;5095348;28;20780;-74
2022/01/08 10:34:28;;;;;;;5.40;3.70;;;-7.10;99.90;;;;;;5096057;28;20418;-72
2022/01/08 10:37:06;;;;;;;7.10;3.87;;;-7.50;99.90;;;;;;5094808;28;20407;-72
2022/01/08 10:39:39;;;;;;;4.90;3.73;;;-7.40;99.90;;;;;;5096138;28;20862;-73
2022/01/08 10:42:17;;;;;;;6.07;3.93;;;-6.60;99.90;;;;;;5095734;28;20412;-72
2022/01/08 10:44:46;;;;;;;4.47;3.77;;;-6.90;99.90;;;;;;5095131;28;20523;-73
2022/01/08 10:47:16;;;;;;;6.13;3.53;;;-7.10;99.90;;;;;;5104518;28;20414;-72
2022/01/08 10:49:46;;;;;;;3.47;3.17;;;-6.90;99.90;;;;;;5109351;28;20458;-72
2022/01/08 10:52:17;;;;;;;3.90;3.60;;;-6.80;99.90;;;;;;5109895;28;20407;-73
2022/01/08 10:54:54;;;;;;;3.10;2.87;;;-6.90;99.90;;;;;;5084955;28;20885;-72
2022/01/08 10:57:19;;;;;;;5.67;3.13;;;-6.40;99.90;;;;;;5093165;28;20412;-72
2022/01/08 10:59:54;;;;;;;6.40;3.77;;;-6.50;99.90;;;;;;5095835;28;20437;-72
2022/01/08 11:02:20;;;;;;;5.53;3.20;;;-7.40;99.90;;;;;;5111728;28;20466;-72
2022/01/08 11:04:50;;;;;;;4.23;3.00;;;-7.10;99.90;;;;;;5107269;27;20416;-71
2022/01/08 11:07:21;;;;;;;13.67;5.70;;;-7.00;99.90;;;;;;5095425;28;20176;-71
2022/01/08 11:09:50;;;;;;;6.67;3.63;;;-6.80;99.90;;;;;;5111024;28;20752;-72
2022/01/08 11:12:26;;;;;;;4.30;3.57;;;-7.20;99.90;;;;;;5114467;28;20420;-71
2022/01/08 11:17:24;;;;;;;5.07;3.47;;;-7.20;99.90;;;;;;5096812;28;20504;-71
2022/01/08 11:19:55;;;;;;;3.60;3.30;;;-7.20;99.90;;;;;;5095595;28;20177;-71
2022/01/08 11:22:25;;;;;;;5.23;3.40;;;-7.30;99.90;;;;;;5097325;28;20419;-73
2022/01/08 11:24:59;;;;;;;4.10;3.57;;;-7.10;99.90;;;;;;5095447;28;20415;-72
2022/01/08 11:27:54;;;;;;;3.90;3.60;;;-7.40;99.90;;;;;;5096590;28;20402;-71
2022/01/08 11:30:25;;;;;;;8.47;4.10;;;-7.40;99.90;;;;;;5080955;28;20422;-73
2022/01/08 11:32:59;;;;;;;4.10;3.57;;;-7.30;99.90;;;;;;5085030;28;20400;-72
2022/01/08 11:35:26;;;;;;;3.67;3.33;;;-7.00;99.90;;;;;;5086852;28;20482;-72
2022/01/08 11:37:55;;;;;;;5.53;4.23;;;-6.90;99.90;;;;;;5077630;28;20392;-71
2022/01/08 11:40:23;;;;;;;6.77;4.07;;;-6.30;99.90;;;;;;5075967;28;20764;-70
2022/01/08 11:42:49;;;;;;;4.80;2.80;;;-6.60;99.90;;;;;;5086746;28;20422;-71
2022/01/08 11:45:20;;;;;;;5.50;2.40;;;-6.00;99.90;;;;;;5074945;28;20392;-72
2022/01/08 11:47:50;;;;;;;7.13;3.20;;;-6.80;99.90;;;;;;5084479;28;20322;-73
2022/01/08 11:50:21;;;;;;;4.47;3.23;;;-6.80;99.90;;;;;;5095605;28;20678;-75
2022/01/08 11:53:18;;;;;;;5.60;3.57;;;-6.70;99.90;;;;;;5095127;28;20402;-73
2022/01/08 11:55:48;;;;;;;3.50;3.17;;;-6.60;99.90;;;;;;5095631;28;20862;-72
2022/01/08 11:58:22;;;;;;;4.87;3.57;;;-6.90;99.90;;;;;;5093910;28;20418;-72
2022/01/08 12:00:53;;;;;;;3.27;2.73;;;-5.30;99.90;;;;;;5095071;28;20402;-72
2022/01/08 12:03:24;;;;;;;10.27;3.03;;;-6.90;99.90;;;;;;5093578;28;20400;-72
2022/01/08 12:05:50;;;;;;;4.30;3.87;;;-6.50;99.90;;;;;;5083898;28;20418;-73
2022/01/08 12:08:18;;;;;;;4.60;3.13;;;-6.40;99.90;;;;;;5094076;28;20872;-72
2022/01/08 12:11:00;;;;;;;4.67;2.83;;;-7.10;99.90;;;;;;5096240;28;20215;-73
2022/01/08 12:13:48;;;;;;;4.80;3.70;;;-6.90;99.90;;;;;;5076621;28;20543;-72
2022/01/08 12:16:35;;;;;;;4.57;2.80;;;-7.00;99.90;;;;;;5075204;28;20405;-72
2022/01/08 12:19:03;;;;;;;7.97;3.57;;;-6.80;99.90;;;;;;5074679;28;20512;-72
2022/01/08 12:21:41;;;;;;;4.60;3.50;;;-6.80;99.90;;;;;;5075462;28;20391;-72
2022/01/08 12:24:27;;;;;;;4.23;3.87;;;-6.70;99.90;;;;;;5075189;28;20408;-73
2022/01/08 12:26:54;;;;;;;4.57;2.93;;;-6.20;99.90;;;;;;5064460;28;20506;-73
2022/01/08 12:29:37;;;;;;;4.67;3.27;;;-5.30;99.90;;;;;;5075414;28;20783;-73
2022/01/08 12:32:30;;;;;;;3.57;2.60;;;-6.90;99.90;;;;;;5073579;28;20411;-72
2022/01/08 12:35:15;;;;;;;3.87;2.73;;;-6.60;99.90;;;;;;5073543;28;20487;-73
2022/01/08 12:37:43;;;;;;;2.80;2.67;;;-6.40;99.90;;;;;;5075154;28;20451;-73
2022/01/08 12:40:11;;;;;;;4.63;3.60;;;-6.50;99.90;;;;;;5074247;28;21019;-74
2022/01/08 12:42:46;;;;;;;4.07;3.30;;;-6.10;99.90;;;;;;5074656;28;20751;-73
2022/01/08 12:45:29;;;;;;;3.33;2.70;;;-6.50;99.90;;;;;;5074749;28;20405;-72
2022/01/08 12:48:00;;;;;;;2.90;2.73;;;-6.30;99.90;;;;;;5074921;28;20464;-72
2022/01/08 12:50:44;;;;;;;3.90;3.07;;;-5.90;99.90;;;;;;5076775;28;20434;-73
2022/01/08 12:53:14;;;;;;;3.13;2.83;;;-6.80;99.90;;;;;;5084064;28;20401;-73
2022/01/08 12:55:40;;;;;;;3.50;3.03;;;-5.90;99.90;;;;;;5083331;28;20399;-73
2022/01/08 12:58:23;;;;;;;5.30;3.93;;;-6.80;99.90;;;;;;5083970;28;20435;-73
2022/01/08 13:00:53;;;;;;;5.80;5.20;;;-7.00;99.90;;;;;;5083571;28;20195;-73
2022/01/08 13:03:25;;;;;;;3.77;3.47;;;-6.70;99.90;;;;;;5083743;28;20472;-72
2022/01/08 13:05:52;;;;;;;6.37;3.20;;;-5.70;99.90;;;;;;5083964;28;20403;-72
2022/01/08 13:08:26;;;;;;;2.80;2.60;;;-7.30;99.90;;;;;;5084106;28;20444;-72
2022/01/08 13:10:56;;;;;;;3.77;3.13;;;-5.70;99.90;;;;;;5084755;28;20406;-73
2022/01/08 13:13:24;;;;;;;5.50;3.53;;;-7.40;99.90;;;;;;5093264;28;20402;-73
2022/01/08 13:15:51;;;;;;;2.97;2.73;;;-7.40;99.90;;;;;;5098119;28;20493;-73
2022/01/08 13:18:24;;;;;;;5.97;3.03;;;-6.80;99.90;;;;;;5098805;28;20419;-72
2022/01/08 13:21:04;;;;;;;3.00;2.80;;;-7.10;99.90;;;;;;5094985;28;20405;-73
2022/01/08 13:23:31;;;;;;;4.10;3.70;;;-7.00;99.90;;;;;;5085785;28;20426;-73
2022/01/08 13:25:59;;;;;;;2.97;2.77;;;-6.80;99.90;;;;;;5097911;28;20400;-74
2022/01/08 13:28:26;;;;;;;3.60;3.40;;;-6.90;99.90;;;;;;5094321;28;20446;-73
2022/01/08 13:30:53;;;;;;;3.57;3.30;;;-7.10;99.90;;;;;;5077157;28;20526;-73
2022/01/08 13:33:28;;;;;;;2.93;2.73;;;-6.30;99.90;;;;;;5089626;28;20437;-73
2022/01/08 13:36:05;;;;;;;4.33;3.03;;;-5.30;99.90;;;;;;5100432;28;20399;-73
2022/01/08 13:38:34;;;;;;;4.07;2.53;;;-6.80;99.90;;;;;;5099932;28;20406;-74
2022/01/08 13:41:07;;;;;;;4.83;2.70;;;-6.80;99.90;;;;;;5097536;28;20410;-73
2022/01/08 13:43:32;;;;;;;6.03;3.70;;;-6.50;99.90;;;;;;5097049;28;20406;-74
2022/01/08 13:46:00;;;;;;;2.57;2.37;;;-6.40;99.90;;;;;;5097652;28;20720;-74
2022/01/08 13:48:25;;;;;;;2.33;2.13;;;-6.50;99.90;;;;;;5097114;28;20644;-75
2022/01/08 13:50:57;;;;;;;4.03;3.03;;;-6.20;99.90;;;;;;5095476;28;20401;-74
2022/01/08 13:53:24;;;;;;;5.33;2.67;;;-6.20;99.90;;;;;;5087970;28;20218;-75
2022/01/08 13:55:50;;;;;;;2.90;2.63;;;-6.20;99.90;;;;;;5094506;28;20411;-75
2022/01/08 13:58:27;;;;;;;2.67;2.20;;;-5.90;99.90;;;;;;5097315;28;20433;-75
2022/01/08 14:00:59;;;;;;;3.37;2.70;;;-6.70;99.90;;;;;;5097820;28;20500;-74
2022/01/08 14:03:29;;;;;;;3.23;2.93;;;-6.40;99.90;;;;;;5097610;28;20402;-74
2022/01/08 14:06:04;;;;;;;3.30;3.00;;;-6.20;99.90;;;;;;5098065;28;20496;-73
2022/01/08 14:08:31;;;;;;;18.77;8.83;;;-6.00;99.90;;;;;;5097342;28;20451;-74
2022/01/08 14:11:00;;;;;;;4.67;3.40;;;-6.80;99.90;;;;;;5097611;28;20531;-74
2022/01/08 14:13:28;;;;;;;4.50;3.03;;;-6.20;99.90;;;;;;5089999;28;20456;-74
2022/01/08 14:16:11;;;;;;;4.30;3.13;;;-5.70;99.90;;;;;;5086777;28;20405;-74
2022/01/08 14:18:37;;;;;;;4.90;2.70;;;-7.10;99.90;;;;;;5081788;28;20453;-74
2022/01/08 14:21:18;;;;;;;6.03;2.63;;;-6.40;99.90;;;;;;5083890;28;20411;-74
2022/01/08 14:23:49;;;;;;;3.50;2.77;;;-5.60;99.90;;;;;;5081475;28;20899;-74
2022/01/08 14:26:19;;;;;;;2.80;1.83;;;-7.20;99.90;;;;;;5082953;28;20422;-74
2022/01/08 14:29:03;;;;;;;4.77;2.47;;;-5.80;99.90;;;;;;5077001;28;20448;-77
2022/01/08 14:31:30;;;;;;;2.53;1.83;;;-7.10;99.90;;;;;;5079197;28;20406;-74
2022/01/08 14:34:12;;;;;;;2.47;2.27;;;-6.30;99.90;;;;;;5085061;28;20697;-74
2022/01/08 14:36:52;;;;;;;3.70;2.70;;;-7.10;99.90;;;;;;5086952;28;20177;-79
2022/01/08 14:39:30;;;;;;;4.40;2.50;;;-7.30;99.90;;;;;;5086220;28;20423;-73
2022/01/08 14:41:58;;;;;;;3.23;2.67;;;-7.00;99.90;;;;;;5084389;28;20849;-71
2022/01/08 14:44:27;;;;;;;2.93;2.63;;;-6.50;99.90;;;;;;5092331;28;20269;-76
2022/01/08 14:46:56;;;;;;;2.70;2.50;;;-6.90;99.90;;;;;;5090442;28;20450;-75
2022/01/08 14:49:22;;;;;;;4.33;2.77;;;-7.10;99.90;;;;;;5089997;28;20906;-75
2022/01/08 14:51:49;;;;;;;4.10;2.67;;;-6.70;99.90;;;;;;5095361;28;20166;-75
2022/01/08 14:54:15;;;;;;;3.93;2.47;;;-5.30;99.90;;;;;;5093382;28;20175;-75
2022/01/08 14:56:45;;;;;;;6.30;2.77;;;-7.10;99.90;;;;;;5098887;28;20468;-76
2022/01/08 14:59:11;;;;;;;5.77;3.23;;;-7.20;99.90;;;;;;5095685;28;20186;-74
2022/01/08 15:01:37;;;;;;;4.90;2.47;;;-7.30;99.90;;;;;;5096415;28;20434;-74
2022/01/08 15:04:04;;;;;;;2.47;2.27;;;-6.90;99.90;;;;;;5095174;28;20263;-73
2022/01/08 15:06:30;;;;;;;3.30;2.80;;;-6.40;99.90;;;;;;5096176;28;20701;-74
2022/01/08 15:08:57;;;;;;;4.83;2.37;;;-6.80;99.90;;;;;;5097056;28;20491;-74
2022/01/08 15:11:23;;;;;;;3.63;3.30;;;-6.50;99.90;;;;;;5084251;28;20493;-74
2022/01/08 15:13:49;;;;;;;6.17;3.40;;;-6.50;99.90;;;;;;5076196;28;20156;-74
2022/01/08 15:16:15;;;;;;;7.27;2.43;;;-6.30;99.90;;;;;;5075326;28;20179;-74
2022/01/08 15:18:42;;;;;;;2.33;2.13;;;-6.30;99.90;;;;;;5076416;28;20478;-73
2022/01/08 15:21:08;;;;;;;4.53;2.70;;;-6.90;99.90;;;;;;5076950;28;20222;-74
2022/01/08 15:23:33;;;;;;;4.77;2.53;;;-6.60;99.90;;;;;;5075145;28;20249;-74
2022/01/08 15:26:01;;;;;;;5.27;2.70;;;-6.60;99.90;;;;;;5076774;28;20564;-73
2022/01/08 15:28:29;;;;;;;3.30;2.83;;;-4.10;99.90;;;;;;5075383;28;20232;-74
2022/01/08 15:30:56;;;;;;;2.97;2.77;;;-5.10;99.90;;;;;;5075775;28;20175;-74
2022/01/08 15:33:22;;;;;;;6.10;2.67;;;-6.60;99.90;;;;;;5075586;28;20164;-74
2022/01/08 15:35:48;;;;;;;3.60;2.53;;;-6.20;99.90;;;;;;5075581;28;20400;-74
2022/01/08 15:38:15;;;;;;;4.87;3.10;;;-6.20;99.90;;;;;;5075332;28;20175;-74
2022/01/08 15:40:41;;;;;;;3.90;2.63;;;-6.70;99.90;;;;;;5075763;28;20400;-74
2022/01/08 15:43:07;;;;;;;5.77;4.33;;;-6.50;99.90;;;;;;5074663;28;20441;-74
2022/01/08 15:45:34;;;;;;;2.77;2.20;;;5.40;99.90;;;;;;5076133;28;20863;-74
2022/01/08 15:48:02;;;;;;;3.53;2.93;;;4.50;99.90;;;;;;5076078;28;20337;-74
2022/01/08 15:50:29;;;;;;;6.87;3.67;;;4.90;99.90;;;;;;5075917;28;20401;-74
2022/01/08 15:52:55;;;;;;;4.13;3.47;;;6.00;99.90;;;;;;5075988;28;20453;-74
2022/01/08 15:55:22;;;;;;;4.07;3.70;;;7.00;99.90;;;;;;5075599;28;20176;-73
2022/01/08 15:57:48;;;;;;;5.53;3.23;;;7.00;99.90;;;;;;5075445;28;20262;-74
2022/01/08 16:00:14;;;;;;;4.47;2.93;;;7.20;99.90;;;;;;5081367;28;20263;-74
2022/01/08 16:02:40;;;;;;;4.43;2.37;;;7.10;99.90;;;;;;5082451;28;20168;-74
2022/01/08 16:05:07;;;;;;;4.70;2.20;;;7.00;99.90;;;;;;5083894;28;20411;-74
2022/01/08 16:07:32;;;;;;;5.37;2.33;;;7.00;99.90;;;;;;5082683;28;20616;-74
2022/01/08 16:09:58;;;;;;;11.03;5.70;;;6.90;99.90;;;;;;5085634;28;20443;-74
2022/01/08 16:12:24;;;;;;;11.03;7.43;;;6.90;99.90;;;;;;5088277;28;20228;-74
2022/01/08 16:14:50;;;;;;;8.80;6.47;;;7.00;99.90;;;;;;5088474;28;20185;-73
2022/01/08 16:17:16;;;;;;;6.60;4.37;;;7.10;99.90;;;;;;5084043;28;20189;-73
2022/01/08 16:19:42;;;;;;;4.83;2.23;;;7.20;99.90;;;;;;5080355;28;20183;-73
2022/01/08 16:22:07;;;;;;;6.77;3.30;;;7.20;99.90;;;;;;5086189;28;20595;-73
2022/01/08 16:24:33;;;;;;;3.57;2.20;;;7.20;99.90;;;;;;5080541;28;20190;-74
2022/01/08 16:27:03;;;;;;;11.60;5.97;;;7.10;99.90;;;;;;5084400;28;20189;-75
2022/01/08 16:29:29;;;;;;;14.27;6.47;;;7.10;99.90;;;;;;5086801;28;20602;-77
2022/01/08 16:31:55;;;;;;;10.30;3.90;;;7.20;99.90;;;;;;5083779;28;20195;-76
2022/01/08 16:34:21;;;;;;;4.93;2.40;;;7.20;99.90;;;;;;5077170;28;20231;-78
2022/01/08 16:36:47;;;;;;;3.53;2.43;;;7.20;99.90;;;;;;5080514;28;20218;-77
2022/01/08 16:39:15;;;;;;;17.43;8.00;;;7.10;99.90;;;;;;5091938;28;20182;-78
2022/01/08 16:41:43;;;;;;;4.33;3.60;;;7.10;99.90;;;;;;5094770;28;20165;-77
2022/01/08 16:44:08;;;;;;;5.83;3.43;;;7.10;99.90;;;;;;5100071;28;20197;-81
2022/01/08 16:46:38;;;;;;;7.43;4.47;;;7.10;99.90;;;;;;5113674;28;20258;-83
2022/01/08 16:49:04;;;;;;;5.50;3.90;;;7.10;99.90;;;;;;5113670;28;20224;-78
2022/01/08 16:51:30;;;;;;;2.53;1.93;;;7.10;99.90;;;;;;5114271;28;20173;-78
2022/01/08 16:53:56;;;;;;;4.83;2.30;;;7.10;99.90;;;;;;5094756;28;20166;-75
2022/01/08 16:56:23;;;;;;;3.70;1.90;;;7.10;99.90;;;;;;5089925;28;20168;-78
2022/01/08 16:58:49;;;;;;;2.17;2.00;;;7.10;99.90;;;;;;5092179;28;20513;-75
2022/01/08 17:01:14;;;;;;;4.70;2.17;;;7.10;99.90;;;;;;5091782;28;20259;-77
2022/01/08 17:03:43;;;;;;;2.80;2.10;;;7.10;99.90;;;;;;5102241;28;20167;-78
2022/01/08 17:06:12;;;;;;;4.97;2.60;;;6.60;99.90;;;;;;5099900;28;20181;-76
2022/01/08 17:08:40;;;;;;;2.97;2.30;;;-6.60;99.90;;;;;;5093533;28;20870;-79
2022/01/08 17:11:05;;;;;;;4.20;3.57;;;-4.90;99.90;;;;;;5097574;28;20174;-76
2022/01/08 17:13:31;;;;;;;5.10;2.60;;;-7.50;99.90;;;;;;5113632;28;20178;-76
2022/01/08 17:15:57;;;;;;;6.37;5.33;;;-7.20;99.90;;;;;;5096970;28;20205;-76
2022/01/08 17:18:23;;;;;;;13.53;6.93;;;-5.40;99.90;;;;;;5095364;28;20185;-79
2022/01/08 17:20:49;;;;;;;8.63;3.80;;;-6.50;99.90;;;;;;5098341;28;20240;-77
2022/01/08 17:23:15;;;;;;;3.37;2.77;;;-7.00;99.90;;;;;;5113371;28;20178;-77
2022/01/08 17:25:41;;;;;;;6.40;4.33;;;-6.30;99.90;;;;;;5101945;28;20183;-80
2022/01/08 17:28:07;;;;;;;4.63;3.47;;;-5.60;99.90;;;;;;5096854;28;20649;-76
2022/01/08 17:30:34;;;;;;;5.27;2.87;;;-7.00;99.90;;;;;;5098850;28;20198;-78
2022/01/08 17:33:00;;;;;;;11.13;7.03;;;-7.00;99.90;;;;;;5111767;28;20709;-77
2022/01/08 17:35:26;;;;;;;8.13;4.90;;;-5.30;99.90;;;;;;5109783;28;20600;-77
2022/01/08 17:37:51;;;;;;;6.27;2.87;;;-6.80;99.90;;;;;;5113717;28;20174;-77
2022/01/08 17:40:17;;;;;;;4.50;3.47;;;-4.50;99.90;;;;;;5101390;28;20190;-78
2022/01/08 17:42:43;;;;;;;6.03;4.30;;;-3.90;99.90;;;;;;5093101;28;20467;-78
2022/01/08 17:45:10;;;;;;;5.07;3.10;;;-4.40;99.90;;;;;;5098570;28;20163;-78